createdAt,value
2023-05-08T00:08:26.589Z,10.6
2023-05-08T00:18:29.043Z,10.9
2023-05-08T00:28:31.516Z,10.3
2023-05-08T00:38:34.236Z,10.1
2023-05-08T00:48:36.574Z,10.8
2023-05-08T00:58:39.070Z,10.4
2023-05-08T01:08:41.500Z,10.3
2023-05-08T01:18:44.045Z,9.9
2023-05-08T01:28:46.362Z,10.1
2023-05-08T01:38:48.887Z,9.6
2023-05-08T01:48:51.271Z,10.1
2023-05-08T01:58:53.979Z,9.9
2023-05-08T02:08:56.235Z,9.7
2023-05-08T02:18:59.011Z,9.9
2023-05-08T02:29:01.093Z,9.8
2023-05-08T02:39:03.492Z,9.6
2023-05-08T02:49:05.889Z,9.6
2023-05-08T02:59:08.475Z,9.3
2023-05-08T03:08:07.893Z,9.3
2023-05-08T03:18:09.901Z,9.3
2023-05-08T03:28:11.966Z,9.6
2023-05-08T03:38:14.850Z,11.3
2023-05-08T03:48:31.509Z,3.9
2023-05-08T03:58:50.168Z,-1.1
2023-05-08T04:09:10.357Z,-0.6
2023-05-08T04:19:28.812Z,5.8
2023-05-08T04:29:49.955Z,8.4
2023-05-08T04:40:09.530Z,-0.2
2023-05-08T04:50:30.085Z,-0.2
2023-05-08T05:00:51.654Z,0.6
2023-05-08T05:11:11.378Z,0.8
2023-05-08T05:21:31.543Z,0.3
2023-05-08T05:31:51.635Z,1.7
2023-05-08T05:42:11.918Z,7.3
2023-05-08T05:52:31.561Z,3.6
2023-05-08T06:02:48.136Z,19.9
2023-05-08T06:13:04.023Z,18.3
2023-05-08T06:23:21.487Z,2.6
2023-05-08T06:33:38.795Z,19
2023-05-08T06:43:53.364Z,20.4
2023-05-08T06:54:10.043Z,22.2
2023-05-08T07:04:25.273Z,22.1
2023-05-08T07:14:42.747Z,20.8
2023-05-08T07:24:59.186Z,20.1
2023-05-08T07:35:13.484Z,22.8
2023-05-08T07:45:26.584Z,24.5
2023-05-08T07:55:40.697Z,25.3
2023-05-08T08:05:55.593Z,27.2
2023-05-08T08:16:11.826Z,26.1
2023-05-08T08:26:27.588Z,22.8
2023-05-08T08:36:45.018Z,23.3
2023-05-08T08:47:02.273Z,20.8
2023-05-08T08:57:19.077Z,22.1
2023-05-08T09:08:17.055Z,21.1
2023-05-08T09:18:15.412Z,20.5
2023-05-08T09:28:18.131Z,19.8
2023-05-08T09:38:24.550Z,22.8
2023-05-08T09:48:33.790Z,20.9
2023-05-08T09:58:47.773Z,23.4
2023-05-08T10:09:02.066Z,19.4
2023-05-08T10:19:16.001Z,23.5
2023-05-08T10:29:30.245Z,24.9
2023-05-08T10:39:44.264Z,26.4
2023-05-08T10:49:59.107Z,28.3
2023-05-08T11:00:13.927Z,33.3
2023-05-08T11:10:27.551Z,9.3
2023-05-08T11:20:43.518Z,16.4
2023-05-08T11:31:02.548Z,18
2023-05-08T11:41:18.572Z,21
2023-05-08T11:51:32.684Z,21.3
2023-05-08T12:01:56.650Z,16.6
2023-05-08T12:12:04.701Z,14.2
2023-05-08T12:22:18.706Z,24.4
2023-05-08T12:32:22.881Z,20.4
2023-05-08T12:42:24.913Z,23.8
2023-05-08T12:52:30.731Z,21.3
2023-05-08T13:02:44.413Z,22.4
2023-05-08T13:12:49.665Z,21.7
2023-05-08T13:22:52.882Z,19.6
2023-05-08T13:32:52.471Z,21
2023-05-08T13:42:52.534Z,20.4
2023-05-08T13:52:54.635Z,20.4
2023-05-08T14:02:53.096Z,19.9
2023-05-08T14:12:51.034Z,18.8
2023-05-08T14:22:52.551Z,18.6
2023-05-08T14:32:51.636Z,15.5
2023-05-08T14:42:52.938Z,15.9
2023-05-08T14:52:54.323Z,15.4
2023-05-08T15:08:09.828Z,15.2
2023-05-08T15:18:10.482Z,13.8
2023-05-08T15:28:12.027Z,13.7
2023-05-08T15:38:13.710Z,12.8
2023-05-08T15:48:15.464Z,13.1
2023-05-08T15:58:16.712Z,12.8
2023-05-08T16:08:19.628Z,12.4
2023-05-08T16:18:22.360Z,12.1
2023-05-08T16:28:24.834Z,12.4
2023-05-08T16:38:27.492Z,13.2
2023-05-08T16:48:30.278Z,12.4
2023-05-08T16:58:32.810Z,12.1
2023-05-08T17:08:34.387Z,12.9
2023-05-08T17:18:35.778Z,12.7
2023-05-08T17:28:37.577Z,12.9
2023-05-08T17:38:38.827Z,12.6
2023-05-08T17:48:40.495Z,13
2023-05-08T17:58:41.708Z,12.9
2023-05-08T18:08:43.138Z,12.2
2023-05-08T18:18:44.340Z,11.8
2023-05-08T18:28:45.997Z,12.3
2023-05-08T18:38:47.298Z,12.3
2023-05-08T18:48:48.502Z,12
2023-05-08T18:58:49.910Z,12.4
2023-05-08T19:08:51.474Z,12.2
2023-05-08T19:18:52.611Z,12.8
2023-05-08T19:28:54.009Z,12.2
2023-05-08T19:38:55.187Z,11.9
2023-05-08T19:48:56.815Z,11.9
2023-05-08T19:58:58.178Z,12.1
2023-05-08T20:08:59.561Z,12
2023-05-08T20:19:00.695Z,12.3
2023-05-08T20:29:02.007Z,11.6
2023-05-08T20:39:03.210Z,11.6
2023-05-08T20:49:04.687Z,11.8
2023-05-08T20:59:05.997Z,10.8
2023-05-08T21:08:09.151Z,10.9
2023-05-08T21:18:10.288Z,11.1
2023-05-08T21:28:11.354Z,11.5
2023-05-08T21:38:11.622Z,10.8
2023-05-08T21:48:12.551Z,11.1
2023-05-08T21:58:12.868Z,11.4
2023-05-08T22:08:14.952Z,11.4
2023-05-08T22:18:17.501Z,11.8
2023-05-08T22:28:19.272Z,11.3
2023-05-08T22:38:21.707Z,10.3
2023-05-08T22:48:23.815Z,10.8
2023-05-08T22:58:25.457Z,10.4
2023-05-08T23:08:26.698Z,10.6
2023-05-08T23:18:27.358Z,10.3
2023-05-08T23:28:27.352Z,10.4
2023-05-08T23:38:29.073Z,10.6
2023-05-08T23:48:29.930Z,10.9
2023-05-08T23:58:30.134Z,10.1
